Terminal Aerodrome Forecast
Issued by NWS Cleveland, OH

Home | Current Version | Previous Version | Text Only | Print | Product List | Glossary On
Versions: 1 2 3 4 5 6 7 8 9 10 11 12 13 14
000
FTUS41 KCLE 031133
TAFTOL
TAF
KTOL 031133Z 0312/0412 20008KT P6SM SCT015 OVC050
     FM031400 28010KT P6SM SCT050 BKN250
     FM032100 28006KT P6SM BKN250=

USA.gov is the U.S. government's official web portal to all federal, state and local government web resources and services.